sensor_id;sensor_type;location;lat;lon;timestamp;P1;durP1;ratioP1;P2;durP2;ratioP2
21046;SDS011;10682;50.874;3.656;2023-07-16T00:00:38;10.55;;;2.90;;
21046;SDS011;10682;50.874;3.656;2023-07-16T00:03:05;15.38;;;3.17;;
21046;SDS011;10682;50.874;3.656;2023-07-16T00:05:33;15.30;;;3.35;;
21046;SDS011;10682;50.874;3.656;2023-07-16T00:08:01;14.75;;;3.95;;
21046;SDS011;10682;50.874;3.656;2023-07-16T00:10:28;14.25;;;3.22;;
21046;SDS011;10682;50.874;3.656;2023-07-16T00:12:55;17.42;;;3.10;;
21046;SDS011;10682;50.874;3.656;2023-07-16T00:15:22;14.85;;;3.28;;
21046;SDS011;10682;50.874;3.656;2023-07-16T00:17:50;11.20;;;2.65;;
21046;SDS011;10682;50.874;3.656;2023-07-16T00:20:17;15.65;;;3.58;;
21046;SDS011;10682;50.874;3.656;2023-07-16T00:22:44;14.30;;;3.40;;
21046;SDS011;10682;50.874;3.656;2023-07-16T00:25:11;13.07;;;3.13;;
21046;SDS011;10682;50.874;3.656;2023-07-16T00:27:38;12.95;;;2.95;;
21046;SDS011;10682;50.874;3.656;2023-07-16T00:30:05;14.52;;;3.42;;
21046;SDS011;10682;50.874;3.656;2023-07-16T00:32:34;14.95;;;2.97;;
21046;SDS011;10682;50.874;3.656;2023-07-16T00:35:01;13.25;;;3.35;;
21046;SDS011;10682;50.874;3.656;2023-07-16T00:37:29;13.88;;;3.10;;
21046;SDS011;10682;50.874;3.656;2023-07-16T00:39:56;11.05;;;3.05;;
21046;SDS011;10682;50.874;3.656;2023-07-16T00:42:23;10.10;;;2.88;;
21046;SDS011;10682;50.874;3.656;2023-07-16T00:44:50;13.70;;;3.35;;
21046;SDS011;10682;50.874;3.656;2023-07-16T00:47:17;13.73;;;3.17;;
21046;SDS011;10682;50.874;3.656;2023-07-16T00:49:45;10.75;;;3.17;;
21046;SDS011;10682;50.874;3.656;2023-07-16T00:52:14;8.45;;;3.38;;
21046;SDS011;10682;50.874;3.656;2023-07-16T00:54:46;10.60;;;3.40;;
21046;SDS011;10682;50.874;3.656;2023-07-16T00:57:14;10.20;;;3.28;;
21046;SDS011;10682;50.874;3.656;2023-07-16T00:59:41;14.55;;;4.28;;
21046;SDS011;10682;50.874;3.656;2023-07-16T01:02:09;11.98;;;4.07;;
21046;SDS011;10682;50.874;3.656;2023-07-16T01:04:36;12.32;;;3.47;;
21046;SDS011;10682;50.874;3.656;2023-07-16T01:07:04;10.63;;;3.80;;
21046;SDS011;10682;50.874;3.656;2023-07-16T01:09:35;12.73;;;3.88;;
21046;SDS011;10682;50.874;3.656;2023-07-16T01:12:08;10.00;;;3.20;;
21046;SDS011;10682;50.874;3.656;2023-07-16T01:14:37;10.68;;;3.50;;
21046;SDS011;10682;50.874;3.656;2023-07-16T01:17:06;12.80;;;3.88;;
21046;SDS011;10682;50.874;3.656;2023-07-16T01:19:34;11.27;;;3.65;;
21046;SDS011;10682;50.874;3.656;2023-07-16T01:25:10;8.88;;;3.08;;
21046;SDS011;10682;50.874;3.656;2023-07-16T01:28:21;12.60;;;2.95;;
21046;SDS011;10682;50.874;3.656;2023-07-16T01:31:16;10.38;;;3.97;;
21046;SDS011;10682;50.874;3.656;2023-07-16T01:33:44;10.57;;;3.42;;
21046;SDS011;10682;50.874;3.656;2023-07-16T01:36:13;12.40;;;4.07;;
21046;SDS011;10682;50.874;3.656;2023-07-16T01:38:41;10.55;;;3.58;;
21046;SDS011;10682;50.874;3.656;2023-07-16T01:41:09;12.63;;;4.28;;
21046;SDS011;10682;50.874;3.656;2023-07-16T01:43:37;14.05;;;4.53;;
21046;SDS011;10682;50.874;3.656;2023-07-16T01:46:04;9.10;;;3.95;;
21046;SDS011;10682;50.874;3.656;2023-07-16T01:48:32;14.30;;;4.03;;
21046;SDS011;10682;50.874;3.656;2023-07-16T01:51:02;16.83;;;4.85;;
21046;SDS011;10682;50.874;3.656;2023-07-16T01:53:30;12.90;;;4.78;;
21046;SDS011;10682;50.874;3.656;2023-07-16T01:56:01;11.32;;;4.35;;
21046;SDS011;10682;50.874;3.656;2023-07-16T01:58:28;12.38;;;4.80;;
21046;SDS011;10682;50.874;3.656;2023-07-16T02:00:55;16.85;;;4.90;;
21046;SDS011;10682;50.874;3.656;2023-07-16T02:03:22;9.38;;;4.28;;
21046;SDS011;10682;50.874;3.656;2023-07-16T02:05:50;13.57;;;4.60;;
21046;SDS011;10682;50.874;3.656;2023-07-16T02:08:17;11.75;;;4.70;;
21046;SDS011;10682;50.874;3.656;2023-07-16T02:10:46;19.60;;;4.93;;
21046;SDS011;10682;50.874;3.656;2023-07-16T02:13:14;12.18;;;5.00;;
21046;SDS011;10682;50.874;3.656;2023-07-16T02:15:42;10.00;;;3.90;;
21046;SDS011;10682;50.874;3.656;2023-07-16T02:18:10;11.05;;;4.13;;
21046;SDS011;10682;50.874;3.656;2023-07-16T02:20:37;13.00;;;4.30;;
21046;SDS011;10682;50.874;3.656;2023-07-16T02:23:04;13.13;;;4.47;;
21046;SDS011;10682;50.874;3.656;2023-07-16T02:25:32;12.45;;;4.80;;
21046;SDS011;10682;50.874;3.656;2023-07-16T02:27:59;12.20;;;5.00;;
21046;SDS011;10682;50.874;3.656;2023-07-16T02:30:27;12.70;;;4.00;;
21046;SDS011;10682;50.874;3.656;2023-07-16T02:32:54;11.02;;;4.15;;
21046;SDS011;10682;50.874;3.656;2023-07-16T02:35:21;14.85;;;4.55;;
21046;SDS011;10682;50.874;3.656;2023-07-16T02:37:48;14.60;;;5.18;;
21046;SDS011;10682;50.874;3.656;2023-07-16T02:40:15;14.35;;;4.60;;
21046;SDS011;10682;50.874;3.656;2023-07-16T02:42:42;10.60;;;4.50;;
21046;SDS011;10682;50.874;3.656;2023-07-16T02:45:10;12.68;;;4.93;;
21046;SDS011;10682;50.874;3.656;2023-07-16T02:47:37;12.93;;;5.38;;
21046;SDS011;10682;50.874;3.656;2023-07-16T02:50:05;14.60;;;5.55;;
21046;SDS011;10682;50.874;3.656;2023-07-16T02:52:32;13.88;;;5.65;;
21046;SDS011;10682;50.874;3.656;2023-07-16T02:54:59;12.55;;;5.43;;
21046;SDS011;10682;50.874;3.656;2023-07-16T02:57:27;15.43;;;4.93;;
21046;SDS011;10682;50.874;3.656;2023-07-16T02:59:55;14.15;;;5.70;;
21046;SDS011;10682;50.874;3.656;2023-07-16T03:02:22;11.27;;;5.80;;
21046;SDS011;10682;50.874;3.656;2023-07-16T03:04:49;15.60;;;5.53;;
21046;SDS011;10682;50.874;3.656;2023-07-16T03:07:16;19.85;;;5.53;;
21046;SDS011;10682;50.874;3.656;2023-07-16T03:09:43;13.75;;;5.82;;
21046;SDS011;10682;50.874;3.656;2023-07-16T03:12:10;12.77;;;5.60;;
21046;SDS011;10682;50.874;3.656;2023-07-16T03:14:37;17.58;;;6.28;;
21046;SDS011;10682;50.874;3.656;2023-07-16T03:17:04;14.07;;;6.10;;
21046;SDS011;10682;50.874;3.656;2023-07-16T03:19:33;12.50;;;6.35;;
21046;SDS011;10682;50.874;3.656;2023-07-16T03:22:00;12.25;;;6.15;;
21046;SDS011;10682;50.874;3.656;2023-07-16T03:24:27;14.25;;;6.07;;
21046;SDS011;10682;50.874;3.656;2023-07-16T03:26:54;17.55;;;6.15;;
21046;SDS011;10682;50.874;3.656;2023-07-16T03:29:38;15.88;;;6.13;;
21046;SDS011;10682;50.874;3.656;2023-07-16T03:32:05;21.63;;;6.22;;
21046;SDS011;10682;50.874;3.656;2023-07-16T03:34:32;17.17;;;6.35;;
21046;SDS011;10682;50.874;3.656;2023-07-16T03:36:59;21.63;;;6.55;;
21046;SDS011;10682;50.874;3.656;2023-07-16T03:39:27;13.35;;;6.18;;
21046;SDS011;10682;50.874;3.656;2023-07-16T03:41:54;14.63;;;6.50;;
21046;SDS011;10682;50.874;3.656;2023-07-16T03:44:21;17.92;;;6.20;;
21046;SDS011;10682;50.874;3.656;2023-07-16T03:46:49;18.80;;;6.60;;
21046;SDS011;10682;50.874;3.656;2023-07-16T03:49:16;17.55;;;6.00;;
21046;SDS011;10682;50.874;3.656;2023-07-16T03:51:43;14.13;;;5.75;;
21046;SDS011;10682;50.874;3.656;2023-07-16T03:54:10;15.40;;;6.68;;
21046;SDS011;10682;50.874;3.656;2023-07-16T03:56:37;15.55;;;6.47;;
21046;SDS011;10682;50.874;3.656;2023-07-16T03:59:04;20.15;;;7.07;;
21046;SDS011;10682;50.874;3.656;2023-07-16T04:01:31;17.92;;;6.45;;
21046;SDS011;10682;50.874;3.656;2023-07-16T04:03:58;17.15;;;6.70;;
21046;SDS011;10682;50.874;3.656;2023-07-16T04:06:25;20.08;;;7.05;;
21046;SDS011;10682;50.874;3.656;2023-07-16T04:08:52;19.65;;;7.13;;
21046;SDS011;10682;50.874;3.656;2023-07-16T04:11:20;15.63;;;6.93;;
21046;SDS011;10682;50.874;3.656;2023-07-16T04:13:46;19.45;;;7.05;;
21046;SDS011;10682;50.874;3.656;2023-07-16T04:16:14;19.50;;;6.88;;
21046;SDS011;10682;50.874;3.656;2023-07-16T04:18:41;18.02;;;6.65;;
21046;SDS011;10682;50.874;3.656;2023-07-16T04:21:08;17.05;;;7.03;;
21046;SDS011;10682;50.874;3.656;2023-07-16T04:23:35;17.92;;;6.93;;
21046;SDS011;10682;50.874;3.656;2023-07-16T04:26:02;17.08;;;7.28;;
21046;SDS011;10682;50.874;3.656;2023-07-16T04:28:29;18.90;;;7.05;;
21046;SDS011;10682;50.874;3.656;2023-07-16T04:30:56;20.40;;;6.82;;
21046;SDS011;10682;50.874;3.656;2023-07-16T04:33:23;24.98;;;7.07;;
21046;SDS011;10682;50.874;3.656;2023-07-16T04:35:51;15.70;;;7.18;;
21046;SDS011;10682;50.874;3.656;2023-07-16T04:38:18;17.50;;;6.60;;
21046;SDS011;10682;50.874;3.656;2023-07-16T04:40:45;15.15;;;7.15;;
21046;SDS011;10682;50.874;3.656;2023-07-16T04:43:12;19.02;;;7.43;;
21046;SDS011;10682;50.874;3.656;2023-07-16T04:45:39;20.77;;;7.55;;
21046;SDS011;10682;50.874;3.656;2023-07-16T04:48:06;16.67;;;7.13;;
21046;SDS011;10682;50.874;3.656;2023-07-16T04:50:33;25.10;;;7.43;;
21046;SDS011;10682;50.874;3.656;2023-07-16T04:53:00;21.50;;;7.63;;
21046;SDS011;10682;50.874;3.656;2023-07-16T04:55:27;19.58;;;8.32;;
21046;SDS011;10682;50.874;3.656;2023-07-16T04:57:55;18.02;;;7.80;;
21046;SDS011;10682;50.874;3.656;2023-07-16T05:00:23;19.00;;;7.60;;
21046;SDS011;10682;50.874;3.656;2023-07-16T05:02:50;24.98;;;8.48;;
21046;SDS011;10682;50.874;3.656;2023-07-16T05:05:17;19.60;;;8.60;;
21046;SDS011;10682;50.874;3.656;2023-07-16T05:07:44;23.42;;;8.23;;
21046;SDS011;10682;50.874;3.656;2023-07-16T05:10:11;23.13;;;8.98;;
21046;SDS011;10682;50.874;3.656;2023-07-16T05:12:38;24.90;;;9.10;;
21046;SDS011;10682;50.874;3.656;2023-07-16T05:15:06;17.30;;;7.88;;
21046;SDS011;10682;50.874;3.656;2023-07-16T05:17:34;20.27;;;8.93;;
21046;SDS011;10682;50.874;3.656;2023-07-16T05:20:01;20.33;;;8.25;;
21046;SDS011;10682;50.874;3.656;2023-07-16T05:22:30;19.50;;;7.80;;
21046;SDS011;10682;50.874;3.656;2023-07-16T05:24:57;20.40;;;8.52;;
21046;SDS011;10682;50.874;3.656;2023-07-16T05:27:24;18.50;;;8.20;;
21046;SDS011;10682;50.874;3.656;2023-07-16T05:29:51;17.40;;;8.57;;
21046;SDS011;10682;50.874;3.656;2023-07-16T05:32:18;17.83;;;7.85;;
21046;SDS011;10682;50.874;3.656;2023-07-16T05:34:46;23.80;;;7.90;;
21046;SDS011;10682;50.874;3.656;2023-07-16T05:37:13;19.02;;;8.40;;
21046;SDS011;10682;50.874;3.656;2023-07-16T05:39:40;19.05;;;8.52;;
21046;SDS011;10682;50.874;3.656;2023-07-16T05:42:07;22.35;;;8.68;;
21046;SDS011;10682;50.874;3.656;2023-07-16T05:44:35;18.08;;;7.95;;
21046;SDS011;10682;50.874;3.656;2023-07-16T05:47:02;20.20;;;8.18;;
21046;SDS011;10682;50.874;3.656;2023-07-16T05:49:29;26.75;;;8.25;;
21046;SDS011;10682;50.874;3.656;2023-07-16T05:51:57;21.88;;;8.50;;
21046;SDS011;10682;50.874;3.656;2023-07-16T05:54:24;18.73;;;7.80;;
21046;SDS011;10682;50.874;3.656;2023-07-16T05:56:52;22.83;;;8.38;;
21046;SDS011;10682;50.874;3.656;2023-07-16T05:59:19;23.63;;;8.45;;
21046;SDS011;10682;50.874;3.656;2023-07-16T06:01:46;18.48;;;8.15;;
21046;SDS011;10682;50.874;3.656;2023-07-16T06:04:14;18.90;;;8.60;;
21046;SDS011;10682;50.874;3.656;2023-07-16T06:06:41;21.05;;;8.63;;
21046;SDS011;10682;50.874;3.656;2023-07-16T06:09:08;25.58;;;8.80;;
21046;SDS011;10682;50.874;3.656;2023-07-16T06:11:35;20.33;;;8.60;;
21046;SDS011;10682;50.874;3.656;2023-07-16T06:14:02;20.48;;;8.60;;
21046;SDS011;10682;50.874;3.656;2023-07-16T06:16:29;17.48;;;7.68;;
21046;SDS011;10682;50.874;3.656;2023-07-16T06:18:57;18.88;;;8.10;;
21046;SDS011;10682;50.874;3.656;2023-07-16T06:21:24;21.58;;;8.50;;
21046;SDS011;10682;50.874;3.656;2023-07-16T06:23:51;18.42;;;8.30;;
21046;SDS011;10682;50.874;3.656;2023-07-16T06:26:18;23.38;;;8.57;;
21046;SDS011;10682;50.874;3.656;2023-07-16T06:28:45;21.67;;;8.18;;
21046;SDS011;10682;50.874;3.656;2023-07-16T06:31:16;20.02;;;8.57;;
21046;SDS011;10682;50.874;3.656;2023-07-16T06:33:44;27.08;;;9.05;;
21046;SDS011;10682;50.874;3.656;2023-07-16T06:36:13;24.10;;;9.25;;
21046;SDS011;10682;50.874;3.656;2023-07-16T06:38:41;21.67;;;8.45;;
21046;SDS011;10682;50.874;3.656;2023-07-16T06:41:08;20.55;;;8.52;;
21046;SDS011;10682;50.874;3.656;2023-07-16T06:43:35;22.17;;;9.18;;
21046;SDS011;10682;50.874;3.656;2023-07-16T06:46:02;20.48;;;8.43;;
21046;SDS011;10682;50.874;3.656;2023-07-16T06:48:31;20.95;;;8.20;;
21046;SDS011;10682;50.874;3.656;2023-07-16T06:50:58;16.70;;;8.27;;
21046;SDS011;10682;50.874;3.656;2023-07-16T06:53:25;24.20;;;8.55;;
21046;SDS011;10682;50.874;3.656;2023-07-16T06:55:52;22.42;;;8.57;;
21046;SDS011;10682;50.874;3.656;2023-07-16T06:58:20;24.33;;;9.02;;
21046;SDS011;10682;50.874;3.656;2023-07-16T07:01:00;25.05;;;9.20;;
21046;SDS011;10682;50.874;3.656;2023-07-16T07:03:27;19.67;;;8.27;;
21046;SDS011;10682;50.874;3.656;2023-07-16T07:05:55;16.75;;;8.00;;
21046;SDS011;10682;50.874;3.656;2023-07-16T07:08:22;21.65;;;8.52;;
21046;SDS011;10682;50.874;3.656;2023-07-16T07:10:49;20.65;;;8.38;;
21046;SDS011;10682;50.874;3.656;2023-07-16T07:13:16;19.02;;;8.20;;
21046;SDS011;10682;50.874;3.656;2023-07-16T07:15:43;19.85;;;7.88;;
21046;SDS011;10682;50.874;3.656;2023-07-16T07:18:10;19.88;;;7.93;;
21046;SDS011;10682;50.874;3.656;2023-07-16T07:20:39;23.92;;;8.80;;
21046;SDS011;10682;50.874;3.656;2023-07-16T07:23:07;19.52;;;8.45;;
21046;SDS011;10682;50.874;3.656;2023-07-16T07:25:34;20.27;;;7.85;;
21046;SDS011;10682;50.874;3.656;2023-07-16T07:28:02;18.98;;;7.78;;
21046;SDS011;10682;50.874;3.656;2023-07-16T07:30:30;20.23;;;7.65;;
21046;SDS011;10682;50.874;3.656;2023-07-16T07:32:57;19.73;;;8.48;;
21046;SDS011;10682;50.874;3.656;2023-07-16T07:35:25;15.48;;;8.40;;
21046;SDS011;10682;50.874;3.656;2023-07-16T07:37:52;24.70;;;8.43;;
21046;SDS011;10682;50.874;3.656;2023-07-16T07:40:19;22.33;;;7.68;;
21046;SDS011;10682;50.874;3.656;2023-07-16T07:42:47;20.80;;;7.90;;
21046;SDS011;10682;50.874;3.656;2023-07-16T07:45:14;19.67;;;7.45;;
21046;SDS011;10682;50.874;3.656;2023-07-16T07:47:41;20.35;;;7.47;;
21046;SDS011;10682;50.874;3.656;2023-07-16T07:50:08;20.30;;;7.70;;
21046;SDS011;10682;50.874;3.656;2023-07-16T07:52:36;18.42;;;7.45;;
21046;SDS011;10682;50.874;3.656;2023-07-16T07:55:03;17.73;;;7.05;;
21046;SDS011;10682;50.874;3.656;2023-07-16T07:57:31;19.13;;;7.25;;
21046;SDS011;10682;50.874;3.656;2023-07-16T07:59:58;17.83;;;6.90;;
21046;SDS011;10682;50.874;3.656;2023-07-16T08:02:26;16.15;;;6.82;;
21046;SDS011;10682;50.874;3.656;2023-07-16T08:04:53;16.70;;;7.40;;
21046;SDS011;10682;50.874;3.656;2023-07-16T08:07:22;19.75;;;6.82;;
21046;SDS011;10682;50.874;3.656;2023-07-16T08:09:49;14.18;;;6.70;;
21046;SDS011;10682;50.874;3.656;2023-07-16T08:12:16;17.73;;;6.35;;
21046;SDS011;10682;50.874;3.656;2023-07-16T08:14:43;15.75;;;6.75;;
21046;SDS011;10682;50.874;3.656;2023-07-16T08:17:10;14.73;;;6.72;;
21046;SDS011;10682;50.874;3.656;2023-07-16T08:19:38;17.52;;;7.30;;
21046;SDS011;10682;50.874;3.656;2023-07-16T08:22:05;21.13;;;7.70;;
21046;SDS011;10682;50.874;3.656;2023-07-16T08:24:32;22.13;;;7.00;;
21046;SDS011;10682;50.874;3.656;2023-07-16T08:26:59;16.70;;;6.97;;
21046;SDS011;10682;50.874;3.656;2023-07-16T08:29:26;15.57;;;7.07;;
21046;SDS011;10682;50.874;3.656;2023-07-16T08:31:53;16.83;;;6.93;;
21046;SDS011;10682;50.874;3.656;2023-07-16T08:34:20;19.75;;;7.03;;
21046;SDS011;10682;50.874;3.656;2023-07-16T08:36:47;18.60;;;7.15;;
21046;SDS011;10682;50.874;3.656;2023-07-16T08:39:14;23.90;;;6.90;;
21046;SDS011;10682;50.874;3.656;2023-07-16T08:41:47;17.85;;;6.90;;
21046;SDS011;10682;50.874;3.656;2023-07-16T08:44:14;15.20;;;6.43;;
21046;SDS011;10682;50.874;3.656;2023-07-16T08:46:42;21.95;;;7.30;;
21046;SDS011;10682;50.874;3.656;2023-07-16T08:49:09;17.73;;;6.65;;
21046;SDS011;10682;50.874;3.656;2023-07-16T08:51:38;16.10;;;6.43;;
21046;SDS011;10682;50.874;3.656;2023-07-16T08:54:06;17.95;;;6.95;;
21046;SDS011;10682;50.874;3.656;2023-07-16T08:56:33;17.48;;;6.82;;
21046;SDS011;10682;50.874;3.656;2023-07-16T08:59:00;17.63;;;6.78;;
21046;SDS011;10682;50.874;3.656;2023-07-16T09:01:28;20.45;;;7.40;;
21046;SDS011;10682;50.874;3.656;2023-07-16T09:03:55;21.00;;;6.75;;
21046;SDS011;10682;50.874;3.656;2023-07-16T09:06:24;14.63;;;6.10;;
21046;SDS011;10682;50.874;3.656;2023-07-16T09:08:51;17.38;;;6.40;;
21046;SDS011;10682;50.874;3.656;2023-07-16T09:11:18;13.68;;;6.25;;
21046;SDS011;10682;50.874;3.656;2023-07-16T09:13:48;11.57;;;5.70;;
21046;SDS011;10682;50.874;3.656;2023-07-16T09:16:19;18.35;;;6.60;;
21046;SDS011;10682;50.874;3.656;2023-07-16T09:18:47;17.00;;;6.10;;
21046;SDS011;10682;50.874;3.656;2023-07-16T09:21:15;19.02;;;6.70;;
21046;SDS011;10682;50.874;3.656;2023-07-16T09:23:42;12.77;;;6.07;;
21046;SDS011;10682;50.874;3.656;2023-07-16T09:26:09;15.50;;;6.55;;
21046;SDS011;10682;50.874;3.656;2023-07-16T09:28:36;15.93;;;6.53;;
21046;SDS011;10682;50.874;3.656;2023-07-16T09:31:07;17.00;;;6.35;;
21046;SDS011;10682;50.874;3.656;2023-07-16T09:33:34;15.95;;;5.82;;
21046;SDS011;10682;50.874;3.656;2023-07-16T09:36:02;7.68;;;3.78;;
21046;SDS011;10682;50.874;3.656;2023-07-16T09:38:29;8.23;;;3.63;;
21046;SDS011;10682;50.874;3.656;2023-07-16T09:40:59;9.43;;;3.70;;
21046;SDS011;10682;50.874;3.656;2023-07-16T09:43:29;9.15;;;3.33;;
21046;SDS011;10682;50.874;3.656;2023-07-16T09:45:56;8.52;;;2.97;;
21046;SDS011;10682;50.874;3.656;2023-07-16T09:48:24;11.55;;;2.88;;
21046;SDS011;10682;50.874;3.656;2023-07-16T09:50:51;6.57;;;2.83;;
21046;SDS011;10682;50.874;3.656;2023-07-16T09:53:20;6.88;;;2.38;;
21046;SDS011;10682;50.874;3.656;2023-07-16T09:55:53;5.20;;;2.53;;
21046;SDS011;10682;50.874;3.656;2023-07-16T09:58:22;9.38;;;2.55;;
21046;SDS011;10682;50.874;3.656;2023-07-16T10:00:51;5.10;;;2.10;;
21046;SDS011;10682;50.874;3.656;2023-07-16T10:03:19;6.18;;;1.95;;
21046;SDS011;10682;50.874;3.656;2023-07-16T10:05:46;7.13;;;2.65;;
21046;SDS011;10682;50.874;3.656;2023-07-16T10:08:17;8.13;;;2.95;;
21046;SDS011;10682;50.874;3.656;2023-07-16T10:10:47;13.63;;;3.30;;
21046;SDS011;10682;50.874;3.656;2023-07-16T10:13:21;7.40;;;3.10;;
21046;SDS011;10682;50.874;3.656;2023-07-16T10:15:50;7.88;;;3.97;;
21046;SDS011;10682;50.874;3.656;2023-07-16T10:18:29;9.38;;;3.75;;
21046;SDS011;10682;50.874;3.656;2023-07-16T10:21:02;10.48;;;4.25;;
21046;SDS011;10682;50.874;3.656;2023-07-16T10:23:42;9.75;;;3.90;;
21046;SDS011;10682;50.874;3.656;2023-07-16T10:26:11;9.88;;;3.72;;
21046;SDS011;10682;50.874;3.656;2023-07-16T10:28:45;11.75;;;4.50;;
21046;SDS011;10682;50.874;3.656;2023-07-16T10:31:23;8.90;;;4.25;;
21046;SDS011;10682;50.874;3.656;2023-07-16T10:34:25;10.07;;;3.95;;
21046;SDS011;10682;50.874;3.656;2023-07-16T10:36:54;8.40;;;3.75;;
21046;SDS011;10682;50.874;3.656;2023-07-16T10:39:21;10.13;;;3.53;;
21046;SDS011;10682;50.874;3.656;2023-07-16T10:41:49;11.45;;;3.80;;
21046;SDS011;10682;50.874;3.656;2023-07-16T10:44:16;9.05;;;3.47;;
21046;SDS011;10682;50.874;3.656;2023-07-16T10:46:43;5.85;;;2.78;;
21046;SDS011;10682;50.874;3.656;2023-07-16T10:49:10;8.65;;;3.00;;
21046;SDS011;10682;50.874;3.656;2023-07-16T10:51:37;8.32;;;3.33;;
21046;SDS011;10682;50.874;3.656;2023-07-16T10:54:04;8.57;;;3.30;;
21046;SDS011;10682;50.874;3.656;2023-07-16T10:56:35;10.15;;;3.58;;
21046;SDS011;10682;50.874;3.656;2023-07-16T10:59:03;10.50;;;3.85;;
21046;SDS011;10682;50.874;3.656;2023-07-16T11:01:32;12.52;;;3.90;;
21046;SDS011;10682;50.874;3.656;2023-07-16T11:04:00;7.47;;;3.67;;
21046;SDS011;10682;50.874;3.656;2023-07-16T11:06:28;9.98;;;3.90;;
21046;SDS011;10682;50.874;3.656;2023-07-16T11:08:55;10.40;;;3.92;;
21046;SDS011;10682;50.874;3.656;2023-07-16T11:11:36;9.45;;;4.28;;
21046;SDS011;10682;50.874;3.656;2023-07-16T11:14:07;9.25;;;3.95;;
21046;SDS011;10682;50.874;3.656;2023-07-16T11:16:35;13.02;;;3.70;;
21046;SDS011;10682;50.874;3.656;2023-07-16T11:19:06;10.35;;;3.97;;
21046;SDS011;10682;50.874;3.656;2023-07-16T11:21:33;6.35;;;3.30;;
21046;SDS011;10682;50.874;3.656;2023-07-16T11:24:12;9.57;;;3.28;;
21046;SDS011;10682;50.874;3.656;2023-07-16T11:26:51;7.50;;;3.40;;
21046;SDS011;10682;50.874;3.656;2023-07-16T11:29:20;8.20;;;3.03;;
21046;SDS011;10682;50.874;3.656;2023-07-16T11:31:48;7.95;;;3.20;;
21046;SDS011;10682;50.874;3.656;2023-07-16T11:34:20;6.78;;;2.90;;
21046;SDS011;10682;50.874;3.656;2023-07-16T11:36:48;8.57;;;3.00;;
21046;SDS011;10682;50.874;3.656;2023-07-16T11:39:17;9.07;;;3.45;;
21046;SDS011;10682;50.874;3.656;2023-07-16T11:41:55;6.55;;;3.10;;
21046;SDS011;10682;50.874;3.656;2023-07-16T11:44:24;9.13;;;3.10;;
21046;SDS011;10682;50.874;3.656;2023-07-16T11:46:52;8.68;;;3.00;;
21046;SDS011;10682;50.874;3.656;2023-07-16T11:49:20;10.73;;;3.40;;
21046;SDS011;10682;50.874;3.656;2023-07-16T11:51:47;6.95;;;2.90;;
21046;SDS011;10682;50.874;3.656;2023-07-16T11:54:14;9.10;;;3.60;;
21046;SDS011;10682;50.874;3.656;2023-07-16T11:56:41;8.63;;;3.50;;
21046;SDS011;10682;50.874;3.656;2023-07-16T11:59:08;7.22;;;3.25;;
21046;SDS011;10682;50.874;3.656;2023-07-16T12:01:39;6.90;;;3.10;;
21046;SDS011;10682;50.874;3.656;2023-07-16T12:04:06;5.65;;;2.70;;
21046;SDS011;10682;50.874;3.656;2023-07-16T12:06:33;8.13;;;3.20;;
21046;SDS011;10682;50.874;3.656;2023-07-16T12:09:00;9.73;;;3.40;;
21046;SDS011;10682;50.874;3.656;2023-07-16T12:11:27;12.38;;;3.20;;
21046;SDS011;10682;50.874;3.656;2023-07-16T12:13:54;9.07;;;3.20;;
21046;SDS011;10682;50.874;3.656;2023-07-16T12:16:21;7.85;;;3.10;;
21046;SDS011;10682;50.874;3.656;2023-07-16T12:18:49;13.60;;;3.65;;
21046;SDS011;10682;50.874;3.656;2023-07-16T12:21:16;8.43;;;3.17;;
21046;SDS011;10682;50.874;3.656;2023-07-16T12:23:43;7.63;;;3.53;;
21046;SDS011;10682;50.874;3.656;2023-07-16T12:26:10;8.70;;;3.22;;
21046;SDS011;10682;50.874;3.656;2023-07-16T12:28:38;8.63;;;3.55;;
21046;SDS011;10682;50.874;3.656;2023-07-16T12:31:05;8.00;;;3.63;;
21046;SDS011;10682;50.874;3.656;2023-07-16T12:33:32;9.68;;;3.13;;
21046;SDS011;10682;50.874;3.656;2023-07-16T12:36:00;10.88;;;3.47;;
21046;SDS011;10682;50.874;3.656;2023-07-16T12:38:27;8.00;;;3.33;;
21046;SDS011;10682;50.874;3.656;2023-07-16T12:40:54;8.25;;;2.97;;
21046;SDS011;10682;50.874;3.656;2023-07-16T12:43:21;8.80;;;3.15;;
21046;SDS011;10682;50.874;3.656;2023-07-16T12:45:48;7.28;;;2.75;;
21046;SDS011;10682;50.874;3.656;2023-07-16T12:48:15;6.30;;;2.42;;
21046;SDS011;10682;50.874;3.656;2023-07-16T12:50:42;6.25;;;1.88;;
21046;SDS011;10682;50.874;3.656;2023-07-16T12:53:09;4.85;;;1.90;;
21046;SDS011;10682;50.874;3.656;2023-07-16T12:55:36;4.63;;;1.77;;
21046;SDS011;10682;50.874;3.656;2023-07-16T12:58:04;3.83;;;1.73;;
21046;SDS011;10682;50.874;3.656;2023-07-16T13:00:31;4.55;;;1.90;;
21046;SDS011;10682;50.874;3.656;2023-07-16T13:02:58;4.78;;;1.60;;
21046;SDS011;10682;50.874;3.656;2023-07-16T13:05:25;3.33;;;1.40;;
21046;SDS011;10682;50.874;3.656;2023-07-16T13:07:53;3.13;;;1.33;;
21046;SDS011;10682;50.874;3.656;2023-07-16T13:10:20;3.45;;;1.15;;
21046;SDS011;10682;50.874;3.656;2023-07-16T13:12:49;3.60;;;1.10;;
21046;SDS011;10682;50.874;3.656;2023-07-16T13:15:16;5.18;;;1.45;;
21046;SDS011;10682;50.874;3.656;2023-07-16T13:17:43;2.88;;;1.23;;
21046;SDS011;10682;50.874;3.656;2023-07-16T13:20:10;5.45;;;1.60;;
21046;SDS011;10682;50.874;3.656;2023-07-16T13:22:38;5.72;;;1.58;;
21046;SDS011;10682;50.874;3.656;2023-07-16T13:25:05;4.05;;;1.45;;
21046;SDS011;10682;50.874;3.656;2023-07-16T13:27:32;2.63;;;1.35;;
21046;SDS011;10682;50.874;3.656;2023-07-16T13:29:59;2.88;;;1.40;;
21046;SDS011;10682;50.874;3.656;2023-07-16T13:32:27;3.03;;;1.35;;
21046;SDS011;10682;50.874;3.656;2023-07-16T13:34:54;5.70;;;1.63;;
21046;SDS011;10682;50.874;3.656;2023-07-16T13:37:21;3.70;;;1.60;;
21046;SDS011;10682;50.874;3.656;2023-07-16T13:39:50;3.03;;;1.40;;
21046;SDS011;10682;50.874;3.656;2023-07-16T13:42:17;6.78;;;1.85;;
21046;SDS011;10682;50.874;3.656;2023-07-16T13:44:49;4.28;;;1.60;;
21046;SDS011;10682;50.874;3.656;2023-07-16T13:47:16;3.58;;;1.50;;
21046;SDS011;10682;50.874;3.656;2023-07-16T13:49:43;3.70;;;1.20;;
21046;SDS011;10682;50.874;3.656;2023-07-16T13:52:11;5.30;;;1.80;;
21046;SDS011;10682;50.874;3.656;2023-07-16T13:54:38;3.00;;;1.80;;
21046;SDS011;10682;50.874;3.656;2023-07-16T13:57:08;5.10;;;1.70;;
21046;SDS011;10682;50.874;3.656;2023-07-16T13:59:35;5.10;;;1.77;;
21046;SDS011;10682;50.874;3.656;2023-07-16T14:02:03;3.00;;;1.50;;
21046;SDS011;10682;50.874;3.656;2023-07-16T14:04:30;6.07;;;2.05;;
21046;SDS011;10682;50.874;3.656;2023-07-16T14:06:59;4.78;;;2.00;;
21046;SDS011;10682;50.874;3.656;2023-07-16T14:09:26;4.93;;;1.60;;
21046;SDS011;10682;50.874;3.656;2023-07-16T14:11:54;2.90;;;1.70;;
21046;SDS011;10682;50.874;3.656;2023-07-16T14:14:21;3.85;;;1.50;;
21046;SDS011;10682;50.874;3.656;2023-07-16T14:16:49;3.28;;;1.63;;
21046;SDS011;10682;50.874;3.656;2023-07-16T14:19:16;3.78;;;1.58;;
21046;SDS011;10682;50.874;3.656;2023-07-16T14:21:43;5.90;;;1.60;;
21046;SDS011;10682;50.874;3.656;2023-07-16T14:24:11;2.97;;;1.58;;
21046;SDS011;10682;50.874;3.656;2023-07-16T14:26:38;4.97;;;1.80;;
21046;SDS011;10682;50.874;3.656;2023-07-16T14:29:05;4.93;;;1.80;;
21046;SDS011;10682;50.874;3.656;2023-07-16T14:31:33;5.53;;;2.00;;
21046;SDS011;10682;50.874;3.656;2023-07-16T14:34:00;3.92;;;1.77;;
21046;SDS011;10682;50.874;3.656;2023-07-16T14:36:27;3.40;;;1.45;;
21046;SDS011;10682;50.874;3.656;2023-07-16T14:38:54;5.05;;;1.90;;
21046;SDS011;10682;50.874;3.656;2023-07-16T14:41:22;5.90;;;2.00;;
21046;SDS011;10682;50.874;3.656;2023-07-16T14:43:49;5.65;;;1.60;;
21046;SDS011;10682;50.874;3.656;2023-07-16T14:46:16;4.65;;;1.60;;